sensor_id;sensor_type;location;lat;lon;timestamp;P1;durP1;ratioP1;P2;durP2;ratioP2
73980;SDS011;62348;51.412;5.436;2023-07-28T00:00:04;4.82;;;4.35;;
73980;SDS011;62348;51.412;5.436;2023-07-28T00:02:29;5.65;;;4.93;;
73980;SDS011;62348;51.412;5.436;2023-07-28T00:04:55;5.45;;;4.95;;
73980;SDS011;62348;51.412;5.436;2023-07-28T00:07:20;6.90;;;5.40;;
73980;SDS011;62348;51.412;5.436;2023-07-28T00:09:46;5.28;;;4.78;;
73980;SDS011;62348;51.412;5.436;2023-07-28T00:12:11;5.53;;;4.90;;
73980;SDS011;62348;51.412;5.436;2023-07-28T00:14:36;6.07;;;5.47;;
73980;SDS011;62348;51.412;5.436;2023-07-28T00:17:02;6.25;;;5.07;;
73980;SDS011;62348;51.412;5.436;2023-07-28T00:19:27;5.47;;;4.93;;
73980;SDS011;62348;51.412;5.436;2023-07-28T00:21:53;6.57;;;5.03;;
73980;SDS011;62348;51.412;5.436;2023-07-28T00:24:18;5.53;;;5.03;;
73980;SDS011;62348;51.412;5.436;2023-07-28T00:26:44;6.18;;;5.10;;
73980;SDS011;62348;51.412;5.436;2023-07-28T00:29:09;6.72;;;4.95;;
73980;SDS011;62348;51.412;5.436;2023-07-28T00:31:35;5.00;;;4.60;;
73980;SDS011;62348;51.412;5.436;2023-07-28T00:34:01;5.90;;;4.97;;
73980;SDS011;62348;51.412;5.436;2023-07-28T00:36:27;5.25;;;4.80;;
73980;SDS011;62348;51.412;5.436;2023-07-28T00:38:53;6.28;;;5.20;;
73980;SDS011;62348;51.412;5.436;2023-07-28T00:41:18;5.88;;;5.28;;
73980;SDS011;62348;51.412;5.436;2023-07-28T00:43:43;5.38;;;4.88;;
73980;SDS011;62348;51.412;5.436;2023-07-28T00:46:12;6.55;;;5.60;;
73980;SDS011;62348;51.412;5.436;2023-07-28T00:48:38;6.63;;;5.45;;
73980;SDS011;62348;51.412;5.436;2023-07-28T00:51:05;6.43;;;5.10;;
73980;SDS011;62348;51.412;5.436;2023-07-28T00:53:32;4.97;;;4.47;;
73980;SDS011;62348;51.412;5.436;2023-07-28T00:55:57;5.97;;;5.28;;
73980;SDS011;62348;51.412;5.436;2023-07-28T00:58:23;5.47;;;4.97;;
73980;SDS011;62348;51.412;5.436;2023-07-28T01:00:48;5.43;;;4.93;;
73980;SDS011;62348;51.412;5.436;2023-07-28T01:03:14;6.18;;;5.35;;
73980;SDS011;62348;51.412;5.436;2023-07-28T01:05:46;6.57;;;5.47;;
73980;SDS011;62348;51.412;5.436;2023-07-28T01:08:27;6.85;;;5.22;;
73980;SDS011;62348;51.412;5.436;2023-07-28T01:11:01;5.78;;;4.95;;
73980;SDS011;62348;51.412;5.436;2023-07-28T01:13:26;8.00;;;6.10;;
73980;SDS011;62348;51.412;5.436;2023-07-28T01:15:52;5.85;;;5.18;;
73980;SDS011;62348;51.412;5.436;2023-07-28T01:18:18;6.65;;;5.82;;
73980;SDS011;62348;51.412;5.436;2023-07-28T01:20:43;5.93;;;5.32;;
73980;SDS011;62348;51.412;5.436;2023-07-28T01:23:19;8.35;;;5.82;;
73980;SDS011;62348;51.412;5.436;2023-07-28T01:28:21;6.10;;;5.50;;
73980;SDS011;62348;51.412;5.436;2023-07-28T01:30:47;5.63;;;5.05;;
73980;SDS011;62348;51.412;5.436;2023-07-28T01:33:13;5.45;;;4.72;;
73980;SDS011;62348;51.412;5.436;2023-07-28T01:35:38;5.47;;;4.97;;
73980;SDS011;62348;51.412;5.436;2023-07-28T01:38:04;5.82;;;4.93;;
73980;SDS011;62348;51.412;5.436;2023-07-28T01:40:29;7.63;;;5.22;;
73980;SDS011;62348;51.412;5.436;2023-07-28T01:42:55;5.25;;;4.75;;
73980;SDS011;62348;51.412;5.436;2023-07-28T01:45:20;5.90;;;4.82;;
73980;SDS011;62348;51.412;5.436;2023-07-28T01:47:46;6.90;;;4.78;;
73980;SDS011;62348;51.412;5.436;2023-07-28T01:50:11;6.82;;;4.85;;
73980;SDS011;62348;51.412;5.436;2023-07-28T01:52:37;6.38;;;4.72;;
73980;SDS011;62348;51.412;5.436;2023-07-28T01:55:02;4.63;;;4.20;;
73980;SDS011;62348;51.412;5.436;2023-07-28T01:57:32;5.28;;;4.70;;
73980;SDS011;62348;51.412;5.436;2023-07-28T01:59:58;6.30;;;4.55;;
73980;SDS011;62348;51.412;5.436;2023-07-28T02:02:23;6.70;;;4.60;;
73980;SDS011;62348;51.412;5.436;2023-07-28T02:04:49;6.40;;;5.43;;
73980;SDS011;62348;51.412;5.436;2023-07-28T02:07:14;7.40;;;5.43;;
73980;SDS011;62348;51.412;5.436;2023-07-28T02:09:39;6.85;;;5.45;;
73980;SDS011;62348;51.412;5.436;2023-07-28T02:12:05;7.80;;;6.10;;
73980;SDS011;62348;51.412;5.436;2023-07-28T02:14:31;7.13;;;5.95;;
73980;SDS011;62348;51.412;5.436;2023-07-28T02:16:56;7.70;;;5.88;;
73980;SDS011;62348;51.412;5.436;2023-07-28T02:19:21;8.60;;;6.30;;
73980;SDS011;62348;51.412;5.436;2023-07-28T02:21:47;9.40;;;6.57;;
73980;SDS011;62348;51.412;5.436;2023-07-28T02:24:12;8.75;;;7.00;;
73980;SDS011;62348;51.412;5.436;2023-07-28T02:26:37;8.20;;;6.50;;
73980;SDS011;62348;51.412;5.436;2023-07-28T02:29:03;10.05;;;7.32;;
73980;SDS011;62348;51.412;5.436;2023-07-28T02:31:28;9.70;;;7.32;;
73980;SDS011;62348;51.412;5.436;2023-07-28T02:33:54;10.70;;;7.60;;
73980;SDS011;62348;51.412;5.436;2023-07-28T02:36:20;10.38;;;7.97;;
73980;SDS011;62348;51.412;5.436;2023-07-28T02:38:45;13.38;;;8.57;;
73980;SDS011;62348;51.412;5.436;2023-07-28T02:41:11;9.90;;;7.97;;
73980;SDS011;62348;51.412;5.436;2023-07-28T02:43:36;11.35;;;8.10;;
73980;SDS011;62348;51.412;5.436;2023-07-28T02:46:02;11.98;;;8.45;;
73980;SDS011;62348;51.412;5.436;2023-07-28T02:48:28;12.18;;;9.40;;
73980;SDS011;62348;51.412;5.436;2023-07-28T02:50:53;12.50;;;9.88;;
73980;SDS011;62348;51.412;5.436;2023-07-28T02:53:18;12.07;;;9.35;;
73980;SDS011;62348;51.412;5.436;2023-07-28T02:55:44;14.13;;;9.40;;
73980;SDS011;62348;51.412;5.436;2023-07-28T02:58:11;11.82;;;10.18;;
73980;SDS011;62348;51.412;5.436;2023-07-28T03:00:37;15.15;;;9.85;;
73980;SDS011;62348;51.412;5.436;2023-07-28T03:03:04;15.88;;;11.57;;
73980;SDS011;62348;51.412;5.436;2023-07-28T03:05:30;16.02;;;10.63;;
73980;SDS011;62348;51.412;5.436;2023-07-28T03:07:56;13.75;;;10.63;;
73980;SDS011;62348;51.412;5.436;2023-07-28T03:10:22;14.57;;;10.68;;
73980;SDS011;62348;51.412;5.436;2023-07-28T03:12:47;15.02;;;11.52;;
73980;SDS011;62348;51.412;5.436;2023-07-28T03:15:12;15.10;;;11.65;;
73980;SDS011;62348;51.412;5.436;2023-07-28T03:17:38;14.48;;;10.88;;
73980;SDS011;62348;51.412;5.436;2023-07-28T03:20:03;17.75;;;11.52;;
73980;SDS011;62348;51.412;5.436;2023-07-28T03:22:29;16.10;;;11.63;;
73980;SDS011;62348;51.412;5.436;2023-07-28T03:24:55;18.52;;;12.85;;
73980;SDS011;62348;51.412;5.436;2023-07-28T03:27:21;21.05;;;13.68;;
73980;SDS011;62348;51.412;5.436;2023-07-28T03:29:46;19.52;;;14.07;;
73980;SDS011;62348;51.412;5.436;2023-07-28T03:32:12;18.30;;;13.93;;
73980;SDS011;62348;51.412;5.436;2023-07-28T03:34:37;21.45;;;14.40;;
73980;SDS011;62348;51.412;5.436;2023-07-28T03:37:02;17.75;;;13.13;;
73980;SDS011;62348;51.412;5.436;2023-07-28T03:39:28;20.80;;;13.88;;
73980;SDS011;62348;51.412;5.436;2023-07-28T03:41:54;20.02;;;13.43;;
73980;SDS011;62348;51.412;5.436;2023-07-28T03:44:20;18.73;;;14.05;;
73980;SDS011;62348;51.412;5.436;2023-07-28T03:46:46;22.48;;;15.23;;
73980;SDS011;62348;51.412;5.436;2023-07-28T03:49:11;20.00;;;15.48;;
73980;SDS011;62348;51.412;5.436;2023-07-28T03:51:37;21.33;;;16.17;;
73980;SDS011;62348;51.412;5.436;2023-07-28T03:54:02;24.25;;;16.58;;
73980;SDS011;62348;51.412;5.436;2023-07-28T03:56:27;21.95;;;17.15;;
73980;SDS011;62348;51.412;5.436;2023-07-28T03:58:53;24.63;;;18.15;;
73980;SDS011;62348;51.412;5.436;2023-07-28T04:01:19;26.08;;;18.70;;
73980;SDS011;62348;51.412;5.436;2023-07-28T04:03:46;25.40;;;19.45;;
73980;SDS011;62348;51.412;5.436;2023-07-28T04:06:12;28.67;;;20.70;;
73980;SDS011;62348;51.412;5.436;2023-07-28T04:08:37;25.25;;;19.35;;
73980;SDS011;62348;51.412;5.436;2023-07-28T04:11:03;29.33;;;21.42;;
73980;SDS011;62348;51.412;5.436;2023-07-28T04:13:28;29.42;;;22.08;;
73980;SDS011;62348;51.412;5.436;2023-07-28T04:15:54;29.40;;;21.30;;
73980;SDS011;62348;51.412;5.436;2023-07-28T04:18:19;30.55;;;21.67;;
73980;SDS011;62348;51.412;5.436;2023-07-28T04:20:45;33.22;;;23.20;;
73980;SDS011;62348;51.412;5.436;2023-07-28T04:23:11;34.75;;;25.08;;
73980;SDS011;62348;51.412;5.436;2023-07-28T04:25:36;36.40;;;24.05;;
73980;SDS011;62348;51.412;5.436;2023-07-28T04:28:02;31.67;;;23.88;;
73980;SDS011;62348;51.412;5.436;2023-07-28T04:30:27;35.72;;;25.52;;
73980;SDS011;62348;51.412;5.436;2023-07-28T04:32:53;39.13;;;26.10;;
73980;SDS011;62348;51.412;5.436;2023-07-28T04:35:18;36.78;;;26.27;;
73980;SDS011;62348;51.412;5.436;2023-07-28T04:37:44;41.75;;;27.52;;
73980;SDS011;62348;51.412;5.436;2023-07-28T04:40:09;42.45;;;27.27;;
73980;SDS011;62348;51.412;5.436;2023-07-28T04:42:35;40.72;;;28.30;;
73980;SDS011;62348;51.412;5.436;2023-07-28T04:45:01;42.30;;;28.45;;
73980;SDS011;62348;51.412;5.436;2023-07-28T04:47:27;41.80;;;28.05;;
73980;SDS011;62348;51.412;5.436;2023-07-28T04:49:52;45.35;;;30.38;;
73980;SDS011;62348;51.412;5.436;2023-07-28T04:52:18;37.58;;;28.13;;
73980;SDS011;62348;51.412;5.436;2023-07-28T04:54:43;38.95;;;28.60;;
73980;SDS011;62348;51.412;5.436;2023-07-28T04:57:09;44.88;;;29.65;;
73980;SDS011;62348;51.412;5.436;2023-07-28T04:59:34;44.85;;;29.73;;
73980;SDS011;62348;51.412;5.436;2023-07-28T05:01:59;51.10;;;32.08;;
73980;SDS011;62348;51.412;5.436;2023-07-28T05:04:25;45.13;;;29.75;;
73980;SDS011;62348;51.412;5.436;2023-07-28T05:06:50;46.20;;;33.13;;
73980;SDS011;62348;51.412;5.436;2023-07-28T05:09:16;45.28;;;30.90;;
73980;SDS011;62348;51.412;5.436;2023-07-28T05:11:41;48.90;;;31.65;;
73980;SDS011;62348;51.412;5.436;2023-07-28T05:14:07;50.30;;;32.95;;
73980;SDS011;62348;51.412;5.436;2023-07-28T05:16:33;47.35;;;30.98;;
73980;SDS011;62348;51.412;5.436;2023-07-28T05:18:59;49.28;;;32.47;;
73980;SDS011;62348;51.412;5.436;2023-07-28T05:21:25;51.40;;;31.27;;
73980;SDS011;62348;51.412;5.436;2023-07-28T05:23:51;42.67;;;29.23;;
73980;SDS011;62348;51.412;5.436;2023-07-28T05:26:16;48.65;;;31.38;;
73980;SDS011;62348;51.412;5.436;2023-07-28T05:28:41;44.70;;;28.90;;
73980;SDS011;62348;51.412;5.436;2023-07-28T05:31:07;40.17;;;27.65;;
73980;SDS011;62348;51.412;5.436;2023-07-28T05:33:33;42.80;;;26.45;;
73980;SDS011;62348;51.412;5.436;2023-07-28T05:36:02;38.85;;;25.92;;
73980;SDS011;62348;51.412;5.436;2023-07-28T05:38:28;42.72;;;26.95;;
73980;SDS011;62348;51.412;5.436;2023-07-28T05:40:57;39.55;;;26.95;;
73980;SDS011;62348;51.412;5.436;2023-07-28T05:43:29;40.15;;;26.00;;
73980;SDS011;62348;51.412;5.436;2023-07-28T05:45:56;43.15;;;26.63;;
73980;SDS011;62348;51.412;5.436;2023-07-28T05:48:22;38.50;;;25.23;;
73980;SDS011;62348;51.412;5.436;2023-07-28T05:50:47;35.88;;;21.77;;
73980;SDS011;62348;51.412;5.436;2023-07-28T05:53:13;32.30;;;21.48;;
73980;SDS011;62348;51.412;5.436;2023-07-28T05:55:39;33.25;;;19.30;;
73980;SDS011;62348;51.412;5.436;2023-07-28T05:58:04;30.67;;;19.27;;
73980;SDS011;62348;51.412;5.436;2023-07-28T06:00:30;28.45;;;17.98;;
73980;SDS011;62348;51.412;5.436;2023-07-28T06:02:55;25.27;;;15.52;;
73980;SDS011;62348;51.412;5.436;2023-07-28T06:05:21;27.08;;;16.95;;
73980;SDS011;62348;51.412;5.436;2023-07-28T06:07:46;21.50;;;15.07;;
73980;SDS011;62348;51.412;5.436;2023-07-28T06:10:12;21.88;;;14.40;;
73980;SDS011;62348;51.412;5.436;2023-07-28T06:12:37;23.95;;;14.07;;
73980;SDS011;62348;51.412;5.436;2023-07-28T06:15:02;18.02;;;12.65;;
73980;SDS011;62348;51.412;5.436;2023-07-28T06:17:28;21.52;;;12.02;;
73980;SDS011;62348;51.412;5.436;2023-07-28T06:19:54;15.65;;;11.70;;
73980;SDS011;62348;51.412;5.436;2023-07-28T06:22:20;15.88;;;10.52;;
73980;SDS011;62348;51.412;5.436;2023-07-28T06:24:45;16.60;;;11.10;;
73980;SDS011;62348;51.412;5.436;2023-07-28T06:27:10;14.35;;;11.07;;
73980;SDS011;62348;51.412;5.436;2023-07-28T06:29:36;13.60;;;10.02;;
73980;SDS011;62348;51.412;5.436;2023-07-28T06:32:01;11.88;;;9.77;;
73980;SDS011;62348;51.412;5.436;2023-07-28T06:34:27;11.48;;;9.25;;
73980;SDS011;62348;51.412;5.436;2023-07-28T06:36:53;11.27;;;9.18;;
73980;SDS011;62348;51.412;5.436;2023-07-28T06:39:18;13.20;;;8.88;;
73980;SDS011;62348;51.412;5.436;2023-07-28T06:41:44;12.85;;;8.63;;
73980;SDS011;62348;51.412;5.436;2023-07-28T06:44:09;10.75;;;8.23;;
73980;SDS011;62348;51.412;5.436;2023-07-28T06:46:35;9.27;;;8.32;;
73980;SDS011;62348;51.412;5.436;2023-07-28T06:49:00;11.02;;;8.98;;
73980;SDS011;62348;51.412;5.436;2023-07-28T06:51:26;11.32;;;8.98;;
73980;SDS011;62348;51.412;5.436;2023-07-28T06:53:51;9.65;;;7.80;;
73980;SDS011;62348;51.412;5.436;2023-07-28T06:56:17;9.20;;;7.60;;
73980;SDS011;62348;51.412;5.436;2023-07-28T06:58:42;12.38;;;8.50;;
73980;SDS011;62348;51.412;5.436;2023-07-28T07:01:08;13.25;;;7.50;;
73980;SDS011;62348;51.412;5.436;2023-07-28T07:03:36;10.85;;;8.10;;
73980;SDS011;62348;51.412;5.436;2023-07-28T07:06:02;9.63;;;8.30;;
73980;SDS011;62348;51.412;5.436;2023-07-28T07:08:27;8.68;;;7.78;;
73980;SDS011;62348;51.412;5.436;2023-07-28T07:10:53;9.95;;;6.90;;
73980;SDS011;62348;51.412;5.436;2023-07-28T07:13:19;9.00;;;7.95;;
73980;SDS011;62348;51.412;5.436;2023-07-28T07:15:44;8.68;;;7.53;;
73980;SDS011;62348;51.412;5.436;2023-07-28T07:18:11;9.68;;;7.60;;
73980;SDS011;62348;51.412;5.436;2023-07-28T07:20:37;8.95;;;7.43;;
73980;SDS011;62348;51.412;5.436;2023-07-28T07:23:03;8.57;;;7.00;;
73980;SDS011;62348;51.412;5.436;2023-07-28T07:25:30;8.10;;;7.30;;
73980;SDS011;62348;51.412;5.436;2023-07-28T07:27:55;9.90;;;7.15;;
73980;SDS011;62348;51.412;5.436;2023-07-28T07:30:21;11.43;;;6.53;;
73980;SDS011;62348;51.412;5.436;2023-07-28T07:32:47;6.57;;;5.97;;
73980;SDS011;62348;51.412;5.436;2023-07-28T07:35:12;7.00;;;6.30;;
73980;SDS011;62348;51.412;5.436;2023-07-28T07:37:38;7.18;;;6.30;;
73980;SDS011;62348;51.412;5.436;2023-07-28T07:40:04;6.18;;;5.57;;
73980;SDS011;62348;51.412;5.436;2023-07-28T07:42:47;6.05;;;5.45;;
73980;SDS011;62348;51.412;5.436;2023-07-28T07:45:14;5.72;;;5.13;;
73980;SDS011;62348;51.412;5.436;2023-07-28T07:47:40;6.65;;;5.68;;
73980;SDS011;62348;51.412;5.436;2023-07-28T07:50:07;5.80;;;5.20;;
73980;SDS011;62348;51.412;5.436;2023-07-28T07:52:36;6.22;;;5.63;;
73980;SDS011;62348;51.412;5.436;2023-07-28T07:55:03;8.00;;;5.40;;
73980;SDS011;62348;51.412;5.436;2023-07-28T07:57:29;5.85;;;5.35;;
73980;SDS011;62348;51.412;5.436;2023-07-28T07:59:56;5.43;;;4.93;;
73980;SDS011;62348;51.412;5.436;2023-07-28T08:02:24;5.50;;;4.95;;
73980;SDS011;62348;51.412;5.436;2023-07-28T08:04:51;7.38;;;5.22;;
73980;SDS011;62348;51.412;5.436;2023-07-28T08:07:18;6.30;;;5.60;;
73980;SDS011;62348;51.412;5.436;2023-07-28T08:09:44;6.63;;;5.45;;
73980;SDS011;62348;51.412;5.436;2023-07-28T08:12:09;6.97;;;5.00;;
73980;SDS011;62348;51.412;5.436;2023-07-28T08:14:36;5.78;;;4.95;;
73980;SDS011;62348;51.412;5.436;2023-07-28T08:17:01;5.75;;;4.72;;
73980;SDS011;62348;51.412;5.436;2023-07-28T08:19:27;5.10;;;4.60;;
73980;SDS011;62348;51.412;5.436;2023-07-28T08:21:52;7.28;;;5.10;;
73980;SDS011;62348;51.412;5.436;2023-07-28T08:24:17;5.22;;;4.68;;
73980;SDS011;62348;51.412;5.436;2023-07-28T08:26:43;5.57;;;4.63;;
73980;SDS011;62348;51.412;5.436;2023-07-28T08:29:08;7.30;;;3.80;;
73980;SDS011;62348;51.412;5.436;2023-07-28T08:31:34;5.68;;;4.68;;
73980;SDS011;62348;51.412;5.436;2023-07-28T08:33:59;7.63;;;4.80;;
73980;SDS011;62348;51.412;5.436;2023-07-28T08:36:24;8.52;;;3.83;;
73980;SDS011;62348;51.412;5.436;2023-07-28T08:38:50;5.05;;;4.55;;
73980;SDS011;62348;51.412;5.436;2023-07-28T08:41:15;5.32;;;4.43;;
73980;SDS011;62348;51.412;5.436;2023-07-28T08:43:41;4.45;;;3.97;;
73980;SDS011;62348;51.412;5.436;2023-07-28T08:46:07;5.40;;;4.40;;
73980;SDS011;62348;51.412;5.436;2023-07-28T08:48:32;5.05;;;4.55;;
73980;SDS011;62348;51.412;5.436;2023-07-28T08:50:58;5.32;;;3.65;;
73980;SDS011;62348;51.412;5.436;2023-07-28T08:53:23;5.47;;;3.78;;
73980;SDS011;62348;51.412;5.436;2023-07-28T08:55:50;4.15;;;3.65;;
73980;SDS011;62348;51.412;5.436;2023-07-28T08:58:20;5.47;;;3.83;;
73980;SDS011;62348;51.412;5.436;2023-07-28T09:00:47;4.43;;;4.03;;
73980;SDS011;62348;51.412;5.436;2023-07-28T09:03:16;3.83;;;3.42;;
73980;SDS011;62348;51.412;5.436;2023-07-28T09:05:43;4.32;;;3.50;;
73980;SDS011;62348;51.412;5.436;2023-07-28T09:08:11;4.88;;;3.35;;
73980;SDS011;62348;51.412;5.436;2023-07-28T09:10:47;4.43;;;2.92;;
73980;SDS011;62348;51.412;5.436;2023-07-28T09:13:14;6.18;;;4.25;;
73980;SDS011;62348;51.412;5.436;2023-07-28T09:15:40;5.07;;;3.85;;
73980;SDS011;62348;51.412;5.436;2023-07-28T09:18:09;10.80;;;4.93;;
73980;SDS011;62348;51.412;5.436;2023-07-28T09:20:37;6.75;;;4.40;;
73980;SDS011;62348;51.412;5.436;2023-07-28T09:23:04;3.97;;;3.67;;
73980;SDS011;62348;51.412;5.436;2023-07-28T09:25:30;3.97;;;3.67;;
73980;SDS011;62348;51.412;5.436;2023-07-28T09:27:57;3.95;;;3.45;;
73980;SDS011;62348;51.412;5.436;2023-07-28T09:30:23;4.25;;;3.75;;
73980;SDS011;62348;51.412;5.436;2023-07-28T09:32:50;4.07;;;3.67;;
73980;SDS011;62348;51.412;5.436;2023-07-28T09:35:17;3.47;;;3.28;;
73980;SDS011;62348;51.412;5.436;2023-07-28T09:37:44;3.95;;;3.65;;
73980;SDS011;62348;51.412;5.436;2023-07-28T09:40:11;3.92;;;3.63;;
73980;SDS011;62348;51.412;5.436;2023-07-28T09:42:38;3.50;;;3.22;;
73980;SDS011;62348;51.412;5.436;2023-07-28T09:45:07;8.20;;;3.78;;
73980;SDS011;62348;51.412;5.436;2023-07-28T09:47:35;4.40;;;3.55;;
73980;SDS011;62348;51.412;5.436;2023-07-28T09:50:02;3.55;;;3.25;;
73980;SDS011;62348;51.412;5.436;2023-07-28T09:52:39;4.47;;;3.40;;
73980;SDS011;62348;51.412;5.436;2023-07-28T09:55:15;4.07;;;2.78;;
73980;SDS011;62348;51.412;5.436;2023-07-28T09:57:44;4.00;;;3.05;;
73980;SDS011;62348;51.412;5.436;2023-07-28T10:00:12;3.30;;;3.00;;
73980;SDS011;62348;51.412;5.436;2023-07-28T10:02:39;3.25;;;2.97;;
73980;SDS011;62348;51.412;5.436;2023-07-28T10:05:05;2.95;;;2.75;;
73980;SDS011;62348;51.412;5.436;2023-07-28T10:07:33;3.92;;;3.60;;
73980;SDS011;62348;51.412;5.436;2023-07-28T10:10:04;5.18;;;3.22;;
73980;SDS011;62348;51.412;5.436;2023-07-28T10:12:39;3.65;;;2.78;;
73980;SDS011;62348;51.412;5.436;2023-07-28T10:15:07;2.95;;;2.75;;
73980;SDS011;62348;51.412;5.436;2023-07-28T10:17:36;3.40;;;3.10;;
73980;SDS011;62348;51.412;5.436;2023-07-28T10:20:02;5.88;;;3.08;;
73980;SDS011;62348;51.412;5.436;2023-07-28T10:22:33;4.90;;;2.83;;
73980;SDS011;62348;51.412;5.436;2023-07-28T10:25:08;2.95;;;2.70;;
73980;SDS011;62348;51.412;5.436;2023-07-28T10:27:36;3.90;;;2.88;;
73980;SDS011;62348;51.412;5.436;2023-07-28T10:30:13;5.10;;;2.80;;
73980;SDS011;62348;51.412;5.436;2023-07-28T10:32:47;2.80;;;2.60;;
73980;SDS011;62348;51.412;5.436;2023-07-28T10:35:23;2.17;;;1.98;;
73980;SDS011;62348;51.412;5.436;2023-07-28T10:37:53;2.50;;;2.30;;
73980;SDS011;62348;51.412;5.436;2023-07-28T10:40:28;2.30;;;2.15;;
73980;SDS011;62348;51.412;5.436;2023-07-28T10:43:04;3.45;;;2.22;;
73980;SDS011;62348;51.412;5.436;2023-07-28T10:45:30;2.35;;;2.15;;
73980;SDS011;62348;51.412;5.436;2023-07-28T10:47:58;2.35;;;2.00;;
73980;SDS011;62348;51.412;5.436;2023-07-28T10:50:31;2.92;;;1.70;;
73980;SDS011;62348;51.412;5.436;2023-07-28T10:52:57;2.00;;;1.70;;
73980;SDS011;62348;51.412;5.436;2023-07-28T10:55:26;1.90;;;1.63;;
73980;SDS011;62348;51.412;5.436;2023-07-28T10:57:53;2.55;;;1.80;;
73980;SDS011;62348;51.412;5.436;2023-07-28T11:00:20;3.00;;;2.00;;
73980;SDS011;62348;51.412;5.436;2023-07-28T11:02:53;1.60;;;1.50;;
73980;SDS011;62348;51.412;5.436;2023-07-28T11:05:20;1.98;;;1.60;;
73980;SDS011;62348;51.412;5.436;2023-07-28T11:07:47;2.60;;;1.40;;
73980;SDS011;62348;51.412;5.436;2023-07-28T11:10:13;2.47;;;1.42;;
73980;SDS011;62348;51.412;5.436;2023-07-28T11:12:43;1.25;;;1.20;;
73980;SDS011;62348;51.412;5.436;2023-07-28T11:15:09;1.20;;;1.10;;
73980;SDS011;62348;51.412;5.436;2023-07-28T11:17:38;1.50;;;1.40;;
73980;SDS011;62348;51.412;5.436;2023-07-28T11:20:15;1.88;;;1.40;;
73980;SDS011;62348;51.412;5.436;2023-07-28T11:22:44;1.52;;;1.40;;
73980;SDS011;62348;51.412;5.436;2023-07-28T11:25:11;1.83;;;1.15;;
73980;SDS011;62348;51.412;5.436;2023-07-28T11:27:37;2.08;;;1.40;;
73980;SDS011;62348;51.412;5.436;2023-07-28T11:30:04;1.63;;;1.30;;
73980;SDS011;62348;51.412;5.436;2023-07-28T11:32:34;2.72;;;1.30;;
73980;SDS011;62348;51.412;5.436;2023-07-28T11:35:06;2.47;;;1.35;;
73980;SDS011;62348;51.412;5.436;2023-07-28T11:37:34;1.63;;;1.25;;
73980;SDS011;62348;51.412;5.436;2023-07-28T11:40:04;2.50;;;1.17;;
73980;SDS011;62348;51.412;5.436;2023-07-28T11:42:52;1.10;;;1.00;;
73980;SDS011;62348;51.412;5.436;2023-07-28T11:45:19;1.00;;;1.00;;
73980;SDS011;62348;51.412;5.436;2023-07-28T11:48:06;1.35;;;1.25;;
73980;SDS011;62348;51.412;5.436;2023-07-28T11:50:36;1.25;;;1.15;;
73980;SDS011;62348;51.412;5.436;2023-07-28T11:53:03;1.40;;;1.30;;
73980;SDS011;62348;51.412;5.436;2023-07-28T11:55:30;2.05;;;1.20;;
73980;SDS011;62348;51.412;5.436;2023-07-28T11:57:55;1.42;;;1.33;;
73980;SDS011;62348;51.412;5.436;2023-07-28T12:00:24;1.15;;;1.13;;
73980;SDS011;62348;51.412;5.436;2023-07-28T12:03:07;1.30;;;1.20;;
73980;SDS011;62348;51.412;5.436;2023-07-28T12:08:06;1.58;;;0.90;;
73980;SDS011;62348;51.412;5.436;2023-07-28T12:10:34;2.45;;;0.93;;
73980;SDS011;62348;51.412;5.436;2023-07-28T12:13:07;1.05;;;0.95;;
73980;SDS011;62348;51.412;5.436;2023-07-28T12:15:33;1.95;;;1.10;;
73980;SDS011;62348;51.412;5.436;2023-07-28T12:18:10;0.95;;;0.93;;
73980;SDS011;62348;51.412;5.436;2023-07-28T12:20:40;1.10;;;1.00;;
73980;SDS011;62348;51.412;5.436;2023-07-28T12:23:11;1.05;;;0.77;;
73980;SDS011;62348;51.412;5.436;2023-07-28T12:25:41;1.00;;;0.70;;
73980;SDS011;62348;51.412;5.436;2023-07-28T12:28:07;3.13;;;0.80;;
73980;SDS011;62348;51.412;5.436;2023-07-28T12:30:33;2.60;;;0.80;;
73980;SDS011;62348;51.412;5.436;2023-07-28T12:32:59;2.25;;;0.70;;
73980;SDS011;62348;51.412;5.436;2023-07-28T12:35:25;3.75;;;0.75;;
73980;SDS011;62348;51.412;5.436;2023-07-28T12:37:55;3.40;;;1.10;;
73980;SDS011;62348;51.412;5.436;2023-07-28T12:40:21;0.70;;;0.70;;
73980;SDS011;62348;51.412;5.436;2023-07-28T12:42:47;1.00;;;0.80;;
73980;SDS011;62348;51.412;5.436;2023-07-28T12:45:13;4.32;;;0.85;;
73980;SDS011;62348;51.412;5.436;2023-07-28T12:47:40;2.85;;;1.23;;
73980;SDS011;62348;51.412;5.436;2023-07-28T12:50:06;2.50;;;0.80;;
73980;SDS011;62348;51.412;5.436;2023-07-28T12:52:32;1.08;;;0.95;;
73980;SDS011;62348;51.412;5.436;2023-07-28T12:54:58;2.35;;;0.63;;
73980;SDS011;62348;51.412;5.436;2023-07-28T12:57:23;1.33;;;0.70;;
73980;SDS011;62348;51.412;5.436;2023-07-28T12:59:49;2.50;;;0.85;;
73980;SDS011;62348;51.412;5.436;2023-07-28T13:02:14;1.48;;;0.77;;
73980;SDS011;62348;51.412;5.436;2023-07-28T13:04:40;1.65;;;0.55;;
73980;SDS011;62348;51.412;5.436;2023-07-28T13:07:05;0.60;;;0.60;;
73980;SDS011;62348;51.412;5.436;2023-07-28T13:09:32;0.43;;;0.43;;
73980;SDS011;62348;51.412;5.436;2023-07-28T13:11:57;3.47;;;0.90;;
73980;SDS011;62348;51.412;5.436;2023-07-28T13:14:24;0.70;;;0.70;;
73980;SDS011;62348;51.412;5.436;2023-07-28T13:16:49;2.13;;;0.95;;
73980;SDS011;62348;51.412;5.436;2023-07-28T13:19:15;1.27;;;0.98;;
73980;SDS011;62348;51.412;5.436;2023-07-28T13:21:41;1.08;;;0.98;;
73980;SDS011;62348;51.412;5.436;2023-07-28T13:24:06;2.00;;;1.15;;
73980;SDS011;62348;51.412;5.436;2023-07-28T13:26:32;2.05;;;0.68;;
73980;SDS011;62348;51.412;5.436;2023-07-28T13:28:57;3.33;;;1.10;;
73980;SDS011;62348;51.412;5.436;2023-07-28T13:31:23;1.35;;;1.10;;
73980;SDS011;62348;51.412;5.436;2023-07-28T13:33:49;2.92;;;1.35;;
73980;SDS011;62348;51.412;5.436;2023-07-28T13:36:14;2.85;;;1.50;;
73980;SDS011;62348;51.412;5.436;2023-07-28T13:38:40;1.75;;;1.65;;
73980;SDS011;62348;51.412;5.436;2023-07-28T13:41:07;1.40;;;1.30;;
73980;SDS011;62348;51.412;5.436;2023-07-28T13:43:32;2.17;;;1.40;;
73980;SDS011;62348;51.412;5.436;2023-07-28T13:46:01;3.92;;;1.50;;
73980;SDS011;62348;51.412;5.436;2023-07-28T13:48:26;1.20;;;1.10;;
73980;SDS011;62348;51.412;5.436;2023-07-28T13:50:52;1.63;;;1.52;;
73980;SDS011;62348;51.412;5.436;2023-07-28T13:53:17;3.97;;;1.40;;
73980;SDS011;62348;51.412;5.436;2023-07-28T13:55:42;2.67;;;1.02;;
73980;SDS011;62348;51.412;5.436;2023-07-28T13:58:08;3.22;;;1.48;;
73980;SDS011;62348;51.412;5.436;2023-07-28T14:00:34;1.73;;;1.35;;
73980;SDS011;62348;51.412;5.436;2023-07-28T14:02:59;2.35;;;1.30;;
73980;SDS011;62348;51.412;5.436;2023-07-28T14:05:25;5.45;;;2.00;;
73980;SDS011;62348;51.412;5.436;2023-07-28T14:07:50;3.92;;;1.27;;
73980;SDS011;62348;51.412;5.436;2023-07-28T14:10:15;4.72;;;1.40;;
73980;SDS011;62348;51.412;5.436;2023-07-28T14:12:41;1.20;;;1.10;;
73980;SDS011;62348;51.412;5.436;2023-07-28T14:15:07;1.48;;;1.23;;
73980;SDS011;62348;51.412;5.436;2023-07-28T14:17:33;2.88;;;0.98;;
73980;SDS011;62348;51.412;5.436;2023-07-28T14:19:58;1.23;;;1.00;;
73980;SDS011;62348;51.412;5.436;2023-07-28T14:22:24;4.63;;;1.13;;
73980;SDS011;62348;51.412;5.436;2023-07-28T14:24:49;2.78;;;1.35;;
73980;SDS011;62348;51.412;5.436;2023-07-28T14:27:15;1.13;;;1.00;;
73980;SDS011;62348;51.412;5.436;2023-07-28T14:29:40;1.75;;;1.15;;
73980;SDS011;62348;51.412;5.436;2023-07-28T14:32:06;2.85;;;1.10;;
73980;SDS011;62348;51.412;5.436;2023-07-28T14:34:32;4.32;;;1.10;;
73980;SDS011;62348;51.412;5.436;2023-07-28T14:37:00;1.50;;;1.25;;
73980;SDS011;62348;51.412;5.436;2023-07-28T14:39:29;1.15;;;1.10;;
73980;SDS011;62348;51.412;5.436;2023-07-28T14:41:55;1.83;;;0.90;;